Time;durP1;ratioP1;P1;durP2;ratioP2;P2;SDS_P1;SDS_P2;PMS_P1;PMS_P2;Temp;Humidity;BMP_temperature;BMP_pressure;BME280_temperature;BME280_humidity;BME280_pressure;Samples;Min_cycle;Max_cycle;Signal;HPM_P1;HPM_P2
2023/12/05 00:00:37;;;;;;;514.78;188.55;;;;;;;-2.07;100.00;97102.09;5024715;28;20037;-55
2023/12/05 00:03:02;;;;;;;354.40;185.25;;;;;;;-2.02;100.00;97105.66;5024763;28;20028;-57
2023/12/05 00:05:28;;;;;;;506.67;194.30;;;;;;;-2.12;100.00;97094.28;5024726;28;20476;-56
2023/12/05 00:07:55;;;;;;;375.88;189.60;;;;;;;-2.02;100.00;97090.34;5023300;28;20021;-55
2023/12/05 00:10:21;;;;;;;343.52;186.38;;;;;;;-1.92;100.00;97090.66;5023170;28;20386;-56
2023/12/05 00:12:46;;;;;;;448.77;193.45;;;;;;;-2.19;100.00;97091.50;5024020;28;20740;-57
2023/12/05 00:15:12;;;;;;;427.75;190.65;;;;;;;-2.00;100.00;97098.06;5025372;28;20029;-57
2023/12/05 00:17:37;;;;;;;501.02;195.48;;;;;;;-1.99;100.00;97104.88;5023630;28;20028;-55
2023/12/05 00:20:03;;;;;;;403.80;183.07;;;;;;;-1.96;100.00;97104.97;5023922;28;20033;-56
2023/12/05 00:22:28;;;;;;;576.90;197.98;;;;;;;-1.84;100.00;97105.38;5023683;28;20041;-56
2023/12/05 00:24:54;;;;;;;392.55;187.52;;;;;;;-1.90;100.00;97109.41;5026539;28;20018;-57
2023/12/05 00:27:19;;;;;;;433.65;177.02;;;;;;;-2.28;100.00;97103.13;5025031;28;20072;-56
2023/12/05 00:29:47;;;;;;;441.92;184.20;;;;;;;-2.37;100.00;97096.03;5024125;28;20065;-56
2023/12/05 00:32:12;;;;;;;402.77;186.88;;;;;;;-2.37;100.00;97087.53;5026229;28;20048;-57
2023/12/05 00:34:37;;;;;;;634.35;196.27;;;;;;;-2.23;100.00;97086.31;5024132;28;20025;-55
2023/12/05 00:37:03;;;;;;;384.83;189.77;;;;;;;-2.36;100.00;97087.59;5021910;28;20646;-56
2023/12/05 00:39:28;;;;;;;593.70;196.38;;;;;;;-2.47;100.00;97080.38;5024842;28;20116;-55
2023/12/05 00:41:54;;;;;;;471.55;190.48;;;;;;;-2.52;100.00;97095.53;5024524;28;20029;-54
2023/12/05 00:44:19;;;;;;;408.67;183.15;;;;;;;-2.45;100.00;97100.00;5024758;28;20067;-57
2023/12/05 00:46:44;;;;;;;400.75;179.32;;;;;;;-2.29;100.00;97091.22;5024150;28;20044;-57
2023/12/05 00:49:10;;;;;;;478.75;188.70;;;;;;;-2.48;100.00;97094.81;5024373;28;20037;-57
2023/12/05 00:51:35;;;;;;;544.47;193.77;;;;;;;-2.44;100.00;97096.66;5025719;28;20033;-55
2023/12/05 00:54:01;;;;;;;393.95;183.00;;;;;;;-2.30;100.00;97104.72;5025800;28;20092;-57
2023/12/05 00:56:26;;;;;;;509.30;187.00;;;;;;;-2.11;100.00;97108.75;5022795;28;20557;-57
2023/12/05 00:58:52;;;;;;;453.42;228.00;;;;;;;-2.06;100.00;97105.50;5027638;28;20331;-56
2023/12/05 01:01:20;;;;;;;352.63;182.85;;;;;;;-2.25;100.00;97108.31;5025595;28;20064;-55
2023/12/05 01:03:45;;;;;;;456.90;183.00;;;;;;;-2.27;100.00;97111.63;5025259;28;20528;-54
2023/12/05 01:06:11;;;;;;;371.25;185.85;;;;;;;-2.35;100.00;97103.72;5025020;28;20057;-53
2023/12/05 01:08:36;;;;;;;504.65;182.70;;;;;;;-2.38;100.00;97101.06;5023488;28;20283;-55
2023/12/05 01:11:02;;;;;;;383.42;186.40;;;;;;;-2.51;100.00;97104.88;5024437;28;20521;-55
2023/12/05 01:13:27;;;;;;;378.52;178.48;;;;;;;-2.56;100.00;97101.34;5025867;28;20297;-55
2023/12/05 01:15:52;;;;;;;374.33;180.35;;;;;;;-2.66;100.00;97098.47;5028722;28;20581;-54
2023/12/05 01:18:18;;;;;;;388.52;184.10;;;;;;;-2.58;100.00;97101.28;5026922;28;20075;-56
2023/12/05 01:20:44;;;;;;;382.88;181.40;;;;;;;-2.83;100.00;97109.75;5022925;28;20105;-54
2023/12/05 01:23:10;;;;;;;353.20;178.95;;;;;;;-2.85;100.00;97099.50;5027142;28;20630;-54
2023/12/05 01:25:35;;;;;;;552.22;187.25;;;;;;;-2.62;100.00;97105.41;5024694;28;20512;-55
2023/12/05 01:28:00;;;;;;;329.77;182.73;;;;;;;-2.59;100.00;97104.63;5031585;28;20546;-53
2023/12/05 01:30:26;;;;;;;408.42;181.75;;;;;;;-2.53;100.00;97102.28;5026707;28;20151;-53
2023/12/05 01:32:51;;;;;;;333.63;181.43;;;;;;;-2.51;100.00;97097.25;5031553;28;20036;-53
2023/12/05 01:35:16;;;;;;;390.40;184.30;;;;;;;-2.40;100.00;97085.75;5029323;28;20032;-53
2023/12/05 01:37:42;;;;;;;531.78;193.32;;;;;;;-2.22;100.00;97082.94;5029620;28;20028;-54
2023/12/05 01:40:09;;;;;;;378.92;180.25;;;;;;;-2.40;100.00;97084.88;5030607;28;20037;-56
2023/12/05 01:42:36;;;;;;;479.55;186.75;;;;;;;-2.27;100.00;97079.38;5030215;28;20500;-55
2023/12/05 01:45:03;;;;;;;374.15;181.50;;;;;;;-2.32;100.00;97073.25;5030652;28;20083;-54
2023/12/05 01:47:29;;;;;;;359.23;185.65;;;;;;;-2.51;100.00;97072.66;5030421;28;20057;-54
2023/12/05 01:49:55;;;;;;;333.98;182.80;;;;;;;-2.32;100.00;97069.84;5030706;28;20201;-53
2023/12/05 01:52:21;;;;;;;385.35;186.43;;;;;;;-2.25;100.00;97074.31;5032392;28;20598;-56
2023/12/05 01:54:46;;;;;;;398.00;211.77;;;;;;;-2.37;100.00;97067.16;5031672;28;20159;-55
2023/12/05 01:57:11;;;;;;;396.92;196.00;;;;;;;-2.37;100.00;97070.56;5028186;28;20283;-55
2023/12/05 01:59:37;;;;;;;556.70;192.45;;;;;;;-2.39;100.00;97064.56;5031138;28;20025;-56
2023/12/05 02:02:03;;;;;;;301.52;175.07;;;;;;;-2.54;100.00;97067.47;5030571;28;20041;-55
2023/12/05 02:04:29;;;;;;;781.22;330.67;;;;;;;-2.51;100.00;97066.69;5030831;28;20074;-54
2023/12/05 02:06:55;;;;;;;417.38;182.70;;;;;;;-2.48;100.00;97064.25;5031179;28;20041;-53
2023/12/05 02:09:22;;;;;;;1177.82;479.85;;;;;;;-2.59;100.00;97060.47;5032558;28;20550;-55
2023/12/05 02:11:48;;;;;;;389.90;185.00;;;;;;;-2.54;100.00;97061.50;5026627;28;20042;-55
2023/12/05 02:14:13;;;;;;;633.20;269.83;;;;;;;-2.61;100.00;97062.97;5029999;28;20236;-55
2023/12/05 02:16:55;;;;;;;547.75;227.57;;;;;;;-2.63;100.00;97056.97;5027954;28;20047;-55
2023/12/05 02:19:44;;;;;;;554.80;223.10;;;;;;;-2.54;100.00;97054.72;5029821;28;20048;-54
2023/12/05 02:22:25;;;;;;;447.20;229.13;;;;;;;-2.51;100.00;97047.19;5029787;28;20041;-54
2023/12/05 02:25:20;;;;;;;385.52;176.55;;;;;;;-2.58;100.00;97052.91;5029153;28;20489;-54
2023/12/05 02:27:47;;;;;;;1339.63;504.05;;;;;;;-2.51;100.00;97037.03;5028208;28;20198;-55
2023/12/05 02:30:15;;;;;;;370.98;177.07;;;;;;;-2.39;100.00;97038.22;5028690;28;20116;-55
2023/12/05 02:32:40;;;;;;;683.50;280.63;;;;;;;-2.31;100.00;97026.59;5028432;28;20040;-54
2023/12/05 02:35:07;;;;;;;398.33;182.27;;;;;;;-2.20;100.00;97028.63;5030481;28;20025;-53
2023/12/05 02:38:21;;;;;;;411.00;172.80;;;;;;;-2.14;100.00;97019.50;5028326;28;20032;-55
2023/12/05 02:40:56;;;;;;;493.63;175.23;;;;;;;-2.06;100.00;97023.94;5021541;28;20148;-53
2023/12/05 02:43:31;;;;;;;361.13;176.82;;;;;;;-1.92;100.00;97015.06;5048976;28;20028;-55
2023/12/05 02:45:59;;;;;;;370.88;178.52;;;;;;;-1.87;100.00;97013.50;5031717;28;20099;-53
2023/12/05 02:48:25;;;;;;;397.13;183.27;;;;;;;-1.82;100.00;97011.06;5029540;28;20595;-56
2023/12/05 02:50:52;;;;;;;380.75;181.38;;;;;;;-1.53;100.00;97003.41;5027354;28;20045;-55
2023/12/05 02:53:18;;;;;;;371.27;181.23;;;;;;;-1.21;100.00;96997.50;5032376;28;20437;-53
2023/12/05 02:55:43;;;;;;;560.55;189.75;;;;;;;-1.22;100.00;96993.22;5028471;28;20070;-54
2023/12/05 02:58:09;;;;;;;355.52;185.10;;;;;;;-1.23;100.00;96997.44;5031140;28;20033;-57
2023/12/05 03:00:34;;;;;;;458.90;187.30;;;;;;;-1.38;100.00;96994.50;5028972;28;20241;-54
2023/12/05 03:03:00;;;;;;;585.85;300.55;;;;;;;-1.52;100.00;96976.25;5029756;28;20033;-54
2023/12/05 03:05:25;;;;;;;805.60;393.42;;;;;;;-1.39;100.00;96990.19;5029048;28;20032;-55
2023/12/05 03:07:50;;;;;;;536.08;252.77;;;;;;;-0.77;100.00;96978.19;5028522;28;20417;-53
2023/12/05 03:10:16;;;;;;;439.08;197.10;;;;;;;-0.55;100.00;96977.03;5028991;28;20229;-56
2023/12/05 03:12:41;;;;;;;639.40;258.65;;;;;;;-0.46;100.00;96977.25;5028844;28;20771;-55
2023/12/05 03:15:08;;;;;;;391.67;178.05;;;;;;;-0.48;100.00;96980.59;5029167;28;20313;-54
2023/12/05 03:17:33;;;;;;;930.25;407.83;;;;;;;-0.43;100.00;96967.13;5029409;28;20029;-54
2023/12/05 03:19:59;;;;;;;398.17;191.05;;;;;;;-0.33;100.00;96969.88;5028027;28;20161;-54
2023/12/05 03:22:24;;;;;;;405.23;190.32;;;;;;;0.02;100.00;96969.81;5029373;28;20036;-54
2023/12/05 03:24:50;;;;;;;558.50;215.93;;;;;;;-0.01;100.00;96969.75;5028643;28;20037;-54
2023/12/05 03:27:15;;;;;;;423.17;198.10;;;;;;;0.10;100.00;96968.28;5028587;28;20037;-55
2023/12/05 03:29:41;;;;;;;406.55;189.77;;;;;;;-0.11;100.00;96967.81;5029365;28;20041;-54
2023/12/05 03:32:06;;;;;;;354.00;188.98;;;;;;;0.20;100.00;96963.38;5029973;28;20155;-55
2023/12/05 03:34:32;;;;;;;418.67;203.77;;;;;;;0.11;100.00;96964.91;5031175;28;20028;-54
2023/12/05 03:36:57;;;;;;;391.55;187.65;;;;;;;0.17;100.00;96963.28;5030794;28;20029;-54
2023/12/05 03:39:22;;;;;;;397.92;194.57;;;;;;;0.12;100.00;96960.66;5029980;28;20043;-54
2023/12/05 03:41:48;;;;;;;474.13;198.82;;;;;;;0.14;100.00;96965.81;5029749;28;20037;-55
2023/12/05 03:44:13;;;;;;;419.45;197.52;;;;;;;0.04;100.00;96967.28;5030604;28;20554;-54
2023/12/05 03:46:39;;;;;;;427.15;192.55;;;;;;;-0.06;100.00;96971.34;5029079;28;20038;-55
2023/12/05 03:49:04;;;;;;;373.95;192.80;;;;;;;0.09;100.00;96974.25;5031785;28;20510;-54
2023/12/05 03:51:30;;;;;;;768.95;395.90;;;;;;;-0.01;100.00;96974.84;5029877;28;20102;-53
2023/12/05 03:53:55;;;;;;;368.20;193.57;;;;;;;0.05;100.00;96980.13;5030631;28;20022;-55
2023/12/05 03:56:21;;;;;;;373.27;197.00;;;;;;;-0.08;100.00;96973.00;5031302;28;20526;-53
2023/12/05 03:58:46;;;;;;;505.88;201.10;;;;;;;-0.12;100.00;96984.00;5028027;28;20119;-53
2023/12/05 04:01:11;;;;;;;378.42;195.23;;;;;;;-0.21;100.00;96971.84;5030244;28;20040;-53
2023/12/05 04:03:37;;;;;;;415.20;192.32;;;;;;;-0.03;100.00;96986.75;5029865;28;20598;-54
2023/12/05 04:06:03;;;;;;;430.20;197.60;;;;;;;0.09;100.00;96979.34;5030459;28;20033;-54
2023/12/05 04:08:29;;;;;;;646.92;325.25;;;;;;;-0.19;100.00;96965.94;5030306;28;20025;-53
2023/12/05 04:10:54;;;;;;;352.30;192.10;;;;;;;-0.03;100.00;96987.59;5027725;28;20071;-54
2023/12/05 04:13:19;;;;;;;433.48;196.90;;;;;;;-0.03;100.00;96979.94;5031797;28;20033;-55
2023/12/05 04:15:47;;;;;;;431.55;194.63;;;;;;;-0.04;100.00;96974.81;5029236;28;20037;-55
2023/12/05 04:18:13;;;;;;;338.50;192.55;;;;;;;0.15;100.00;96982.88;5030350;28;20536;-53
2023/12/05 04:20:38;;;;;;;473.85;198.30;;;;;;;-0.08;100.00;96973.00;5027880;28;20044;-56
2023/12/05 04:23:04;;;;;;;353.20;193.40;;;;;;;0.01;100.00;96983.44;5031362;28;20097;-53
2023/12/05 04:25:29;;;;;;;369.92;181.32;;;;;;;0.08;100.00;96982.72;5029856;28;20409;-54
2023/12/05 04:27:55;;;;;;;425.60;194.60;;;;;;;0.24;100.00;96990.72;5028534;28;20025;-54
2023/12/05 04:30:20;;;;;;;430.08;207.70;;;;;;;0.25;100.00;96992.44;5029694;28;20037;-55
2023/12/05 04:32:45;;;;;;;405.42;194.88;;;;;;;0.19;100.00;96985.50;5030252;28;20110;-54
2023/12/05 04:35:11;;;;;;;420.52;196.70;;;;;;;0.17;100.00;96987.19;5029982;28;20325;-53
2023/12/05 04:37:36;;;;;;;404.15;195.02;;;;;;;0.14;100.00;96989.66;5028714;28;20055;-56
2023/12/05 04:40:02;;;;;;;354.70;189.93;;;;;;;0.35;100.00;96973.06;5028960;28;20171;-55
2023/12/05 04:42:27;;;;;;;410.95;196.98;;;;;;;0.37;100.00;96979.09;5028988;28;20056;-55
2023/12/05 04:44:53;;;;;;;381.63;193.68;;;;;;;0.24;100.00;96975.38;5029841;28;20033;-55
2023/12/05 04:47:18;;;;;;;399.95;200.75;;;;;;;0.12;100.00;96983.66;5029886;28;20347;-56
2023/12/05 04:49:43;;;;;;;458.17;201.20;;;;;;;0.33;100.00;96982.41;5026939;28;20606;-55
2023/12/05 04:52:09;;;;;;;392.08;197.88;;;;;;;0.33;100.00;96985.81;5028402;28;20577;-56
2023/12/05 04:54:34;;;;;;;398.17;205.57;;;;;;;0.28;100.00;96984.84;5031461;28;20110;-54
2023/12/05 04:56:59;;;;;;;394.08;191.68;;;;;;;0.33;100.00;96993.47;5027404;28;20117;-54
2023/12/05 04:59:25;;;;;;;441.95;195.35;;;;;;;0.33;100.00;96993.47;5029617;28;20444;-55
2023/12/05 05:01:50;;;;;;;406.30;196.05;;;;;;;0.21;100.00;96990.66;5027073;28;20038;-55
2023/12/05 05:04:15;;;;;;;426.83;200.52;;;;;;;0.08;100.00;96989.53;5027414;28;20032;-55
2023/12/05 05:06:41;;;;;;;481.77;199.38;;;;;;;0.02;100.00;96986.84;5029599;28;20115;-54
2023/12/05 05:09:07;;;;;;;367.90;194.73;;;;;;;0.08;100.00;96985.28;5035196;28;20037;-55
2023/12/05 05:11:33;;;;;;;431.75;199.80;;;;;;;0.04;100.00;96978.38;5031998;28;20049;-55
2023/12/05 05:13:58;;;;;;;384.98;195.57;;;;;;;0.18;100.00;96988.06;5032213;28;20515;-55
2023/12/05 05:16:23;;;;;;;388.40;192.50;;;;;;;0.09;100.00;96981.91;5033695;28;20045;-54
2023/12/05 05:18:51;;;;;;;485.00;204.80;;;;;;;0.09;100.00;96981.91;5031535;28;20053;-56
2023/12/05 05:21:17;;;;;;;392.70;197.15;;;;;;;0.10;100.00;96992.97;5031222;28;21014;-55
2023/12/05 05:23:42;;;;;;;519.60;209.27;;;;;;;0.25;100.00;96995.00;5031509;28;20025;-55
2023/12/05 05:26:08;;;;;;;368.75;196.77;;;;;;;0.07;100.00;96988.66;5032265;28;20052;-55
2023/12/05 05:28:33;;;;;;;408.63;200.52;;;;;;;0.07;100.00;96991.22;5032458;28;20029;-55
2023/12/05 05:31:00;;;;;;;421.45;203.65;;;;;;;-0.05;100.00;96990.94;5031234;28;20662;-53
2023/12/05 05:33:25;;;;;;;377.55;193.07;;;;;;;0.06;100.00;96981.84;5032575;28;20098;-54
2023/12/05 05:35:51;;;;;;;408.33;200.18;;;;;;;0.02;100.00;96990.25;5031138;28;20045;-55
2023/12/05 05:38:17;;;;;;;557.72;247.40;;;;;;;0.05;100.00;96990.34;5033487;28;20017;-54
2023/12/05 05:40:42;;;;;;;424.65;202.43;;;;;;;0.30;100.00;96995.97;5030007;28;20136;-55
2023/12/05 05:43:08;;;;;;;367.92;194.32;;;;;;;0.41;100.00;96993.63;5032393;28;20047;-58
2023/12/05 05:45:33;;;;;;;445.65;201.40;;;;;;;0.52;100.00;96986.22;5031534;28;20044;-56
2023/12/05 05:47:59;;;;;;;374.88;202.00;;;;;;;0.50;100.00;96985.31;5031204;28;20120;-56
2023/12/05 05:50:24;;;;;;;411.08;203.40;;;;;;;0.38;100.00;96993.59;5030675;28;20336;-56
2023/12/05 05:52:49;;;;;;;492.20;213.13;;;;;;;0.49;100.00;96991.25;5030609;28;20129;-56
2023/12/05 05:55:15;;;;;;;414.35;202.85;;;;;;;0.52;100.00;96997.28;5032109;28;20381;-54
2023/12/05 05:57:40;;;;;;;451.77;205.38;;;;;;;0.52;100.00;96993.88;5030557;28;20028;-56
2023/12/05 06:00:06;;;;;;;481.15;205.05;;;;;;;0.62;100.00;96992.34;5030828;28;20025;-56
2023/12/05 06:02:32;;;;;;;445.35;215.85;;;;;;;0.46;100.00;96986.06;5032923;28;20506;-54
2023/12/05 06:04:57;;;;;;;428.55;207.45;;;;;;;0.37;100.00;96987.59;5033370;28;20052;-56
2023/12/05 06:07:23;;;;;;;433.02;210.43;;;;;;;0.38;100.00;96988.47;5032681;28;20071;-55
2023/12/05 06:09:49;;;;;;;479.17;209.13;;;;;;;0.52;100.00;96989.63;5031084;28;20439;-55
2023/12/05 06:12:14;;;;;;;404.45;207.25;;;;;;;0.64;100.00;96996.66;5031029;28;20124;-55
2023/12/05 06:14:40;;;;;;;485.23;205.38;;;;;;;0.59;100.00;96997.44;5031519;28;20021;-57
2023/12/05 06:17:06;;;;;;;379.17;201.57;;;;;;;0.62;100.00;96995.78;5029716;28;20425;-57
2023/12/05 06:19:31;;;;;;;382.55;212.40;;;;;;;0.50;100.00;96998.97;5030325;28;20049;-53
2023/12/05 06:21:56;;;;;;;431.90;210.25;;;;;;;0.64;100.00;96999.22;5029212;28;20033;-56
2023/12/05 06:24:22;;;;;;;406.10;207.85;;;;;;;0.68;100.00;96995.03;5031891;28;20519;-55
2023/12/05 06:26:47;;;;;;;488.65;215.90;;;;;;;0.74;100.00;96997.72;5028621;28;20072;-54
2023/12/05 06:29:13;;;;;;;398.70;210.75;;;;;;;0.75;100.00;96998.59;5032766;28;20271;-56
2023/12/05 06:31:38;;;;;;;416.95;213.95;;;;;;;0.77;100.00;97002.91;5029031;28;20061;-54
2023/12/05 06:34:04;;;;;;;410.15;212.00;;;;;;;0.77;100.00;97007.16;5031475;28;20439;-56
2023/12/05 06:36:30;;;;;;;446.80;211.82;;;;;;;0.71;100.00;97000.19;5030846;28;20038;-56
2023/12/05 06:38:55;;;;;;;484.10;215.40;;;;;;;0.78;100.00;97011.47;5028897;28;20030;-57
2023/12/05 06:41:20;;;;;;;445.30;206.05;;;;;;;0.73;100.00;97003.69;5029919;28;20099;-55
2023/12/05 06:43:46;;;;;;;517.90;208.85;;;;;;;0.75;100.00;97004.56;5030217;28;20075;-55
2023/12/05 06:46:11;;;;;;;401.55;200.57;;;;;;;0.69;100.00;97001.88;5027193;28;20056;-55
2023/12/05 06:48:37;;;;;;;658.80;300.20;;;;;;;0.73;100.00;97011.34;5031579;28;20017;-55
2023/12/05 06:51:03;;;;;;;400.73;209.35;;;;;;;0.73;100.00;97011.34;5029099;28;20069;-55
2023/12/05 06:53:29;;;;;;;391.15;208.93;;;;;;;0.80;100.00;97014.03;5030908;28;20106;-55
2023/12/05 06:55:54;;;;;;;449.35;219.45;;;;;;;0.80;100.00;97014.91;5029442;28;20079;-59
2023/12/05 06:58:21;;;;;;;443.50;215.77;;;;;;;0.80;100.00;97014.91;5029153;28;20032;-55
2023/12/05 07:00:47;;;;;;;452.60;212.45;;;;;;;0.87;100.00;97011.63;5029964;28;20052;-55
2023/12/05 07:03:13;;;;;;;427.20;208.93;;;;;;;0.95;100.00;97016.00;5030663;28;20031;-54
2023/12/05 07:05:38;;;;;;;381.70;214.75;;;;;;;0.90;100.00;97023.63;5030323;28;20099;-55
2023/12/05 07:08:06;;;;;;;422.85;216.10;;;;;;;0.88;100.00;97012.47;5030348;28;20053;-55
2023/12/05 07:10:32;;;;;;;469.15;215.30;;;;;;;0.77;100.00;97012.25;5028942;28;20597;-54
2023/12/05 07:12:57;;;;;;;459.88;222.05;;;;;;;0.89;100.00;97017.63;5031256;28;20119;-54
2023/12/05 07:15:22;;;;;;;389.02;211.77;;;;;;;0.83;100.00;97025.19;5031070;28;20338;-54
2023/12/05 07:17:48;;;;;;;546.03;219.02;;;;;;;0.85;100.00;97028.66;5028774;28;20017;-54
2023/12/05 07:20:14;;;;;;;400.88;218.93;;;;;;;0.98;100.00;97041.69;5031016;28;20094;-54
2023/12/05 07:22:39;;;;;;;376.20;211.55;;;;;;;1.02;100.00;97040.91;5030506;28;20363;-55
2023/12/05 07:25:05;;;;;;;446.25;221.98;;;;;;;0.95;100.00;97037.38;5028663;28;20041;-56
2023/12/05 07:27:30;;;;;;;389.48;224.85;;;;;;;1.06;100.00;97045.25;5029624;28;20032;-54
2023/12/05 07:29:56;;;;;;;496.85;214.85;;;;;;;1.04;100.00;97042.66;5027583;28;20029;-55
2023/12/05 07:32:21;;;;;;;452.63;217.80;;;;;;;1.00;100.00;97047.72;5030911;28;20557;-55
2023/12/05 07:34:49;;;;;;;503.45;223.13;;;;;;;0.78;100.00;97047.28;5029334;28;20174;-55
2023/12/05 07:37:14;;;;;;;447.20;213.70;;;;;;;0.93;100.00;97054.41;5030586;28;20033;-56
2023/12/05 07:39:40;;;;;;;468.52;215.13;;;;;;;0.87;100.00;97049.16;5031010;28;20422;-54
2023/12/05 07:42:05;;;;;;;380.90;212.43;;;;;;;0.85;100.00;97056.81;5030162;28;20149;-54
2023/12/05 07:44:31;;;;;;;444.77;214.52;;;;;;;0.86;100.00;97047.44;5029569;28;20024;-55
2023/12/05 07:46:56;;;;;;;407.90;210.05;;;;;;;0.93;100.00;97056.09;5027650;28;20069;-53
2023/12/05 07:49:22;;;;;;;445.02;212.43;;;;;;;0.88;100.00;97049.19;5030519;28;20112;-56
2023/12/05 07:51:48;;;;;;;563.95;212.48;;;;;;;0.83;100.00;97058.47;5024303;28;20034;-54
2023/12/05 07:54:13;;;;;;;402.67;207.57;;;;;;;0.86;100.00;97055.97;5028757;28;20024;-56
2023/12/05 07:56:39;;;;;;;420.58;203.02;;;;;;;0.95;100.00;97056.97;5030545;28;20043;-54
2023/12/05 07:59:04;;;;;;;429.27;207.57;;;;;;;0.92;100.00;97067.19;5030494;28;20112;-54
2023/12/05 08:01:29;;;;;;;388.30;205.40;;;;;;;0.86;100.00;97061.09;5028012;28;20611;-54
2023/12/05 08:03:57;;;;;;;395.48;201.95;;;;;;;0.86;100.00;97061.09;5028020;28;20414;-54
2023/12/05 08:06:23;;;;;;;414.83;198.57;;;;;;;0.99;100.00;97069.88;5028518;28;20497;-54
2023/12/05 08:08:48;;;;;;;470.92;205.68;;;;;;;0.86;100.00;97066.22;5028708;28;20017;-55
2023/12/05 08:11:13;;;;;;;356.42;205.82;;;;;;;0.67;100.00;97056.44;5028909;28;20040;-56
2023/12/05 08:13:39;;;;;;;474.60;209.60;;;;;;;0.76;100.00;97052.38;5028594;28;20043;-55
2023/12/05 08:16:05;;;;;;;354.00;203.38;;;;;;;0.85;100.00;97056.81;5028541;28;20053;-56
2023/12/05 08:18:30;;;;;;;362.58;202.98;;;;;;;0.70;100.00;97071.88;5029427;28;20029;-56
2023/12/05 08:20:55;;;;;;;524.88;212.95;;;;;;;0.94;100.00;97076.63;5029288;28;20048;-55
2023/12/05 08:23:21;;;;;;;386.73;206.00;;;;;;;0.94;100.00;97078.31;5030503;28;20036;-55
2023/12/05 08:25:46;;;;;;;420.65;206.68;;;;;;;0.96;100.00;97081.78;5027640;28;20329;-55
2023/12/05 08:28:12;;;;;;;414.63;201.13;;;;;;;1.06;100.00;97075.13;5029357;28;20025;-54
2023/12/05 08:30:37;;;;;;;336.77;202.80;;;;;;;1.08;100.00;97073.47;5031549;28;20030;-55
2023/12/05 08:33:05;;;;;;;303.10;199.48;;;;;;;1.06;100.00;97070.00;5030522;28;20041;-55
2023/12/05 08:35:30;;;;;;;389.83;202.82;;;;;;;1.08;100.00;97073.47;5034164;28;20055;-55
2023/12/05 08:37:56;;;;;;;438.35;206.35;;;;;;;1.15;100.00;97072.75;5032562;28;20405;-54
2023/12/05 08:40:21;;;;;;;329.05;202.40;;;;;;;1.19;100.00;97071.13;5032639;28;20409;-55
2023/12/05 08:42:47;;;;;;;395.77;204.02;;;;;;;1.25;100.00;97078.91;5032947;28;20230;-55
2023/12/05 08:45:12;;;;;;;354.55;206.52;;;;;;;1.19;100.00;97081.34;5031533;28;20033;-56
2023/12/05 08:47:38;;;;;;;381.55;207.43;;;;;;;1.24;100.00;97077.19;5036398;28;20037;-53
2023/12/05 08:50:05;;;;;;;364.92;205.35;;;;;;;1.38;100.00;97090.25;5031448;28;20033;-53
2023/12/05 08:52:30;;;;;;;357.05;206.27;;;;;;;1.37;100.00;97086.81;5031104;28;20048;-54
2023/12/05 08:54:56;;;;;;;458.17;209.38;;;;;;;1.40;100.00;97089.44;5030520;28;20029;-54
2023/12/05 08:57:21;;;;;;;346.05;205.55;;;;;;;1.42;100.00;97079.22;5031368;28;20112;-55
2023/12/05 08:59:47;;;;;;;408.48;210.07;;;;;;;1.53;100.00;97076.84;5032209;28;20020;-55
2023/12/05 09:02:12;;;;;;;365.33;213.23;;;;;;;1.49;100.00;97082.75;5033417;28;20423;-55
2023/12/05 09:04:38;;;;;;;388.65;204.18;;;;;;;1.50;100.00;97079.34;5031486;28;20339;-53
2023/12/05 09:07:03;;;;;;;327.45;201.95;;;;;;;1.50;100.00;97092.16;5036162;28;20041;-54
2023/12/05 09:09:29;;;;;;;424.75;210.93;;;;;;;1.81;100.00;97088.44;5032327;28;20056;-55
2023/12/05 09:11:56;;;;;;;435.25;209.93;;;;;;;2.12;100.00;97092.34;5031135;28;20064;-54
2023/12/05 09:14:21;;;;;;;371.38;206.35;;;;;;;1.89;100.00;97095.41;5032047;28;20064;-54
2023/12/05 09:16:47;;;;;;;486.70;214.27;;;;;;;2.03;100.00;97093.94;5031171;28;20120;-54
2023/12/05 09:19:12;;;;;;;381.75;210.80;;;;;;;2.15;100.00;97087.28;5031433;28;20332;-54
2023/12/05 09:21:37;;;;;;;378.92;214.20;;;;;;;2.34;100.00;97096.13;5033109;28;20062;-56
2023/12/05 09:24:03;;;;;;;511.90;224.10;;;;;;;2.22;100.00;97086.50;5032419;28;20045;-55
2023/12/05 09:26:29;;;;;;;356.80;211.02;;;;;;;2.50;100.00;97096.31;5032766;28;20460;-53
2023/12/05 09:28:54;;;;;;;466.35;218.63;;;;;;;2.86;100.00;97092.56;5031327;28;20285;-55
2023/12/05 09:31:20;;;;;;;426.75;222.38;;;;;;;2.95;100.00;97092.66;5031843;28;20163;-55
2023/12/05 09:33:46;;;;;;;381.50;210.63;;;;;;;3.01;100.00;97085.88;5032981;28;20021;-55
2023/12/05 09:36:11;;;;;;;370.67;205.07;;;;;;;2.32;100.00;97090.09;5031133;28;20105;-55
2023/12/05 09:38:37;;;;;;;437.23;204.75;;;;;;;2.39;100.00;97094.47;5031907;28;20017;-54
2023/12/05 09:41:03;;;;;;;424.15;202.35;;;;;;;2.63;100.00;97090.53;5035488;28;20116;-54
2023/12/05 09:43:31;;;;;;;370.73;201.73;;;;;;;3.54;100.00;97095.03;5032728;28;20115;-54
2023/12/05 09:46:00;;;;;;;490.90;211.57;;;;;;;3.95;100.00;97090.25;5029065;28;20646;-53
2023/12/05 09:48:30;;;;;;;366.63;205.32;;;;;;;4.13;100.00;97084.41;5031338;28;20484;-53
2023/12/05 09:50:56;;;;;;;467.27;209.45;;;;;;;3.61;100.00;97080.53;5031299;28;20268;-54
2023/12/05 09:53:23;;;;;;;398.90;206.40;;;;;;;3.78;100.00;97090.97;5036046;28;20029;-54
2023/12/05 09:55:49;;;;;;;409.10;209.18;;;;;;;3.98;100.00;97088.59;5034498;28;20565;-53
2023/12/05 09:58:15;;;;;;;458.65;209.75;;;;;;;3.49;100.00;97094.13;5034566;28;20024;-54
2023/12/05 10:00:42;;;;;;;399.17;206.80;;;;;;;3.75;100.00;97088.38;5036461;28;20103;-55
2023/12/05 10:03:09;;;;;;;366.42;206.57;;;;;;;2.47;100.00;97089.44;5034234;28;20033;-54
2023/12/05 10:05:40;;;;;;;410.85;210.02;;;;;;;2.53;100.00;97089.53;5034371;28;20033;-54
2023/12/05 10:08:06;;;;;;;441.15;215.07;;;;;;;2.38;100.00;97081.63;5033459;28;20512;-53
2023/12/05 10:10:32;;;;;;;347.42;210.90;;;;;;;2.66;100.00;97079.44;5033368;28;20067;-54
2023/12/05 10:13:01;;;;;;;448.58;214.40;;;;;;;2.25;100.00;97084.00;5037322;28;20025;-54
2023/12/05 10:15:27;;;;;;;344.65;211.50;;;;;;;2.84;100.00;97083.94;5033560;28;20032;-52
2023/12/05 10:17:53;;;;;;;434.50;207.00;;;;;;;2.44;100.00;97084.25;5035260;28;20433;-53
2023/12/05 10:20:18;;;;;;;357.65;203.65;;;;;;;2.40;100.00;97091.06;5033393;28;20045;-52
2023/12/05 10:22:44;;;;;;;400.45;206.90;;;;;;;2.85;100.00;97096.81;5031213;28;20076;-53
2023/12/05 10:25:11;;;;;;;390.75;209.85;;;;;;;2.58;100.00;97095.63;5034533;28;20340;-53
2023/12/05 10:27:36;;;;;;;366.30;211.45;;;;;;;2.94;100.00;97092.66;5035511;28;20424;-55
2023/12/05 10:30:02;;;;;;;389.67;213.23;;;;;;;3.37;100.00;97072.56;5033858;28;20025;-55
2023/12/05 10:32:27;;;;;;;448.20;213.93;;;;;;;4.56;100.00;97076.09;5034181;28;20064;-55
2023/12/05 10:34:56;;;;;;;402.17;207.90;;;;;;;4.98;100.00;97072.88;5035460;28;20064;-54
2023/12/05 10:37:28;;;;;;;391.67;207.30;;;;;;;5.34;100.00;97079.88;5032484;28;20044;-54
2023/12/05 10:39:54;;;;;;;;;;;;;;;5.56;100.00;97071.31;5032812;28;20017;-53
2023/12/05 10:42:24;;;;;;;362.13;201.48;;;;;;;5.48;100.00;97071.31;5033655;28;19928;-53
2023/12/05 10:44:50;;;;;;;479.55;207.73;;;;;;;4.92;100.00;97076.28;5033198;28;20033;-55
2023/12/05 10:47:16;;;;;;;419.95;226.05;;;;;;;5.18;100.00;97072.94;5034438;28;20037;-54
2023/12/05 10:49:42;;;;;;;391.33;197.85;;;;;;;4.82;100.00;97076.25;5034165;28;20025;-56
2023/12/05 10:52:17;;;;;;;515.55;208.52;;;;;;;4.77;100.00;97074.50;5033151;28;20425;-55
2023/12/05 10:54:44;;;;;;;386.23;203.15;;;;;;;4.36;100.00;97081.13;5032711;28;20217;-54